Time;durP1;ratioP1;P1;durP2;ratioP2;P2;SDS_P1;SDS_P2;PMS_P1;PMS_P2;Temp;Humidity;BMP_temperature;BMP_pressure;BME280_temperature;BME280_humidity;BME280_pressure;Samples;Min_cycle;Max_cycle;Signal;HPM_P1;HPM_P2
2023/01/05 00:01:43;;;;;;;26.90;5.68;;;12.10;99.90;;;;;;5043767;28;20064;-60
2023/01/05 00:04:08;;;;;;;30.25;5.18;;;12.10;99.90;;;;;;5043425;28;20102;-61
2023/01/05 00:06:36;;;;;;;26.00;5.25;;;12.10;99.90;;;;;;5043356;28;20037;-60
2023/01/05 00:09:02;;;;;;;36.25;6.22;;;12.10;99.90;;;;;;5042454;28;20063;-61
2023/01/05 00:22:30;;;;;;;35.10;5.53;;;12.00;99.90;;;;;;5038994;28;20083;-61
2023/01/05 00:25:03;;;;;;;30.17;5.90;;;12.00;99.90;;;;;;5044797;28;20037;-61
2023/01/05 00:27:30;;;;;;;33.92;6.10;;;12.00;99.90;;;;;;5042890;28;20053;-61
2023/01/05 00:29:56;;;;;;;33.80;5.95;;;12.00;99.90;;;;;;5047139;28;20130;-61
2023/01/05 00:32:22;;;;;;;27.98;5.13;;;12.00;99.90;;;;;;5047288;28;20033;-60
2023/01/05 00:34:49;;;;;;;30.65;5.75;;;12.00;99.90;;;;;;5045702;28;20044;-61
2023/01/05 00:37:15;;;;;;;24.98;5.22;;;12.00;99.90;;;;;;5046552;28;20033;-61
2023/01/05 00:39:41;;;;;;;29.98;5.20;;;12.00;99.90;;;;;;5043213;28;20033;-61
2023/01/05 00:42:07;;;;;;;21.73;5.20;;;12.00;99.90;;;;;;5045266;28;21091;-61
2023/01/05 00:44:32;;;;;;;29.38;5.18;;;12.00;99.90;;;;;;5047250;28;20021;-61
2023/01/05 00:46:58;;;;;;;30.80;5.35;;;12.00;99.90;;;;;;5047359;28;20095;-60
2023/01/05 00:49:23;;;;;;;29.17;5.38;;;12.00;99.90;;;;;;5044458;28;20029;-61
2023/01/05 00:51:49;;;;;;;26.38;5.30;;;11.90;99.90;;;;;;5045971;28;20484;-61
2023/01/05 00:54:14;;;;;;;28.98;4.97;;;11.90;99.90;;;;;;5046159;28;20025;-61
2023/01/05 00:56:40;;;;;;;26.20;5.80;;;11.90;99.90;;;;;;5045636;28;20041;-61
2023/01/05 00:59:05;;;;;;;32.00;5.75;;;11.90;99.90;;;;;;5046318;28;20060;-60
2023/01/05 01:01:31;;;;;;;23.40;5.10;;;11.90;99.90;;;;;;5045876;28;20029;-61
2023/01/05 01:03:57;;;;;;;26.77;5.60;;;12.00;99.90;;;;;;5046655;28;20508;-61
2023/01/05 01:06:22;;;;;;;26.00;5.30;;;11.90;99.90;;;;;;5046663;28;20420;-61
2023/01/05 01:08:48;;;;;;;23.40;5.13;;;11.90;99.90;;;;;;5046448;28;20067;-60
2023/01/05 01:11:15;;;;;;;27.55;5.22;;;11.90;99.90;;;;;;5044220;28;20588;-61
2023/01/05 01:13:43;;;;;;;31.13;5.68;;;11.80;99.90;;;;;;5046951;28;20059;-61
2023/01/05 01:16:13;;;;;;;23.67;5.65;;;11.80;99.90;;;;;;5046085;28;20152;-61
2023/01/05 01:18:40;;;;;;;28.38;5.65;;;11.80;99.90;;;;;;5046107;28;20116;-60
2023/01/05 01:21:06;;;;;;;25.00;4.53;;;11.80;99.90;;;;;;5036588;28;20030;-61
2023/01/05 01:23:36;;;;;;;35.10;5.38;;;11.90;99.90;;;;;;5043510;28;20115;-61
2023/01/05 01:26:11;;;;;;;29.48;5.63;;;11.80;99.90;;;;;;5043738;28;20052;-61
2023/01/05 01:28:37;;;;;;;23.55;5.75;;;11.80;99.90;;;;;;5046100;28;20063;-61
2023/01/05 01:31:04;;;;;;;29.48;5.53;;;11.90;99.90;;;;;;5045597;28;20507;-60
2023/01/05 01:33:30;;;;;;;28.73;5.75;;;11.90;99.90;;;;;;5045136;28;20044;-61
2023/01/05 01:35:56;;;;;;;34.45;6.13;;;11.80;99.90;;;;;;5045549;28;20033;-60
2023/01/05 01:38:22;;;;;;;28.08;5.68;;;11.90;99.90;;;;;;5046166;28;20056;-61
2023/01/05 01:40:48;;;;;;;24.25;5.45;;;11.90;99.90;;;;;;5043637;28;20567;-61
2023/01/05 01:43:19;;;;;;;27.73;5.35;;;11.80;99.90;;;;;;5045856;28;20059;-60
2023/01/05 01:45:45;;;;;;;30.05;5.78;;;11.70;99.90;;;;;;5045362;28;20839;-61
2023/01/05 01:48:16;;;;;;;27.40;5.25;;;11.80;99.90;;;;;;5045528;28;20033;-61
2023/01/05 01:50:50;;;;;;;24.15;5.05;;;11.70;99.90;;;;;;5044997;28;20041;-60
2023/01/05 01:53:33;;;;;;;29.92;6.28;;;11.70;99.90;;;;;;5042411;28;20489;-61
2023/01/05 01:56:02;;;;;;;26.37;5.13;;;11.80;99.90;;;;;;5042937;28;20440;-60
2023/01/05 01:58:30;;;;;;;33.38;5.72;;;11.70;99.90;;;;;;5025113;28;20041;-61
2023/01/05 02:00:59;;;;;;;28.35;5.45;;;11.80;99.90;;;;;;5041216;28;20468;-60
2023/01/05 02:03:25;;;;;;;26.90;5.20;;;11.80;99.90;;;;;;5045218;28;20676;-60
2023/01/05 02:05:53;;;;;;;31.58;6.10;;;11.70;99.90;;;;;;5045741;28;20044;-61
2023/01/05 02:08:24;;;;;;;33.42;5.80;;;11.70;99.90;;;;;;5045232;28;20040;-61
2023/01/05 02:11:11;;;;;;;28.17;5.55;;;11.70;99.90;;;;;;5044039;28;20104;-61
2023/01/05 02:13:51;;;;;;;31.17;6.13;;;11.70;99.90;;;;;;5045194;28;20115;-60
2023/01/05 02:16:42;;;;;;;25.00;5.22;;;11.70;99.90;;;;;;5039219;28;20370;-61
2023/01/05 02:19:28;;;;;;;30.75;6.82;;;11.70;99.90;;;;;;5005254;28;20041;-61
2023/01/05 02:22:17;;;;;;;27.92;5.68;;;11.70;99.90;;;;;;5044236;28;20039;-61
2023/01/05 02:25:08;;;;;;;30.75;5.68;;;11.70;99.90;;;;;;5043333;28;20471;-60
2023/01/05 02:27:52;;;;;;;30.80;6.40;;;11.70;99.90;;;;;;5043043;28;20106;-59
2023/01/05 02:30:37;;;;;;;33.45;6.82;;;11.60;99.90;;;;;;5043694;28;20504;-61
2023/01/05 02:33:16;;;;;;;30.60;6.97;;;11.60;99.90;;;;;;5042856;28;20029;-60
2023/01/05 02:36:12;;;;;;;30.50;6.43;;;11.70;99.90;;;;;;5043942;28;20630;-61
2023/01/05 02:38:53;;;;;;;30.00;6.57;;;11.70;99.90;;;;;;5044365;28;20033;-61
2023/01/05 02:41:29;;;;;;;30.08;6.05;;;11.60;99.90;;;;;;5040750;28;20037;-59
2023/01/05 02:44:00;;;;;;;34.10;6.85;;;11.60;99.90;;;;;;5042633;28;20086;-61
2023/01/05 02:46:25;;;;;;;26.85;5.57;;;11.60;99.90;;;;;;5044566;28;20041;-60
2023/01/05 02:48:54;;;;;;;29.75;5.80;;;11.50;99.90;;;;;;5044889;28;20086;-60
2023/01/05 02:51:23;;;;;;;35.22;6.25;;;11.50;99.90;;;;;;5025864;28;20568;-60
2023/01/05 02:54:11;;;;;;;30.77;5.95;;;11.60;99.90;;;;;;5043518;28;20404;-60
2023/01/05 02:56:43;;;;;;;34.25;5.72;;;11.50;99.90;;;;;;5042508;28;20511;-61
2023/01/05 02:59:19;;;;;;;38.30;6.20;;;11.60;99.90;;;;;;5044165;28;20040;-60
2023/01/05 03:01:53;;;;;;;36.15;5.95;;;11.50;99.90;;;;;;5043646;28;20041;-61
2023/01/05 03:04:28;;;;;;;32.22;6.30;;;11.50;99.90;;;;;;5042701;28;20400;-60
2023/01/05 03:07:01;;;;;;;35.88;6.07;;;11.60;99.90;;;;;;5044017;28;20049;-60
2023/01/05 03:09:35;;;;;;;24.98;4.85;;;11.50;99.90;;;;;;5040791;28;20491;-61
2023/01/05 03:15:22;;;;;;;28.67;6.40;;;11.50;99.90;;;;;;5043422;28;20067;-60
2023/01/05 03:17:53;;;;;;;31.10;6.35;;;11.50;99.90;;;;;;5044524;28;20029;-61
2023/01/05 03:20:23;;;;;;;32.35;5.57;;;11.50;99.90;;;;;;5043930;28;20122;-61
2023/01/05 03:37:56;;;;;;;36.92;7.07;;;11.40;99.90;;;;;;5041293;28;20135;-61
2023/01/05 03:40:28;;;;;;;32.65;6.47;;;11.40;99.90;;;;;;5041839;28;20033;-61
2023/01/05 03:42:54;;;;;;;27.52;5.60;;;11.30;99.90;;;;;;5042562;28;20520;-61
2023/01/05 03:45:21;;;;;;;33.35;6.13;;;11.30;99.90;;;;;;5041750;28;20373;-61
2023/01/05 03:47:48;;;;;;;27.80;6.18;;;11.40;99.90;;;;;;5043577;28;20124;-61
2023/01/05 03:50:14;;;;;;;35.22;6.22;;;11.40;99.90;;;;;;5038836;28;20037;-60
2023/01/05 03:52:39;;;;;;;28.10;5.72;;;11.40;99.90;;;;;;5043158;28;20033;-61
2023/01/05 03:55:05;;;;;;;30.83;6.18;;;11.30;99.90;;;;;;5042543;28;20075;-60
2023/01/05 03:57:31;;;;;;;29.02;5.68;;;11.40;99.90;;;;;;5043636;28;20120;-60
2023/01/05 03:59:56;;;;;;;28.55;6.40;;;11.40;99.90;;;;;;5045131;28;20049;-60
2023/01/05 04:02:22;;;;;;;29.42;5.80;;;11.40;99.90;;;;;;5046895;28;20120;-61
2023/01/05 04:04:47;;;;;;;32.88;6.43;;;11.40;99.90;;;;;;5047268;28;20141;-61
2023/01/05 04:07:13;;;;;;;26.45;5.38;;;11.30;99.90;;;;;;5047511;28;20060;-61
2023/01/05 04:09:38;;;;;;;24.52;5.65;;;11.20;99.90;;;;;;5047986;28;20614;-61
2023/01/05 04:12:04;;;;;;;34.08;5.57;;;11.20;99.90;;;;;;5046179;28;20452;-61
2023/01/05 04:14:30;;;;;;;30.23;6.05;;;11.20;99.90;;;;;;5029434;28;20116;-61
2023/01/05 04:16:55;;;;;;;36.60;7.13;;;11.30;99.90;;;;;;5047140;28;20029;-61
2023/01/05 04:19:21;;;;;;;30.30;6.10;;;11.30;99.90;;;;;;5047355;28;20037;-60
2023/01/05 04:21:46;;;;;;;33.08;6.63;;;11.30;99.90;;;;;;5046677;28;20384;-60
2023/01/05 04:24:12;;;;;;;31.70;6.22;;;11.20;99.90;;;;;;5046208;28;20519;-61
2023/01/05 04:26:38;;;;;;;26.35;5.65;;;11.20;99.90;;;;;;5047283;28;20435;-61
2023/01/05 04:29:04;;;;;;;33.40;6.40;;;11.20;99.90;;;;;;5047323;28;20109;-62
2023/01/05 04:31:30;;;;;;;27.65;5.80;;;11.20;99.90;;;;;;5037359;28;20033;-60
2023/01/05 04:33:56;;;;;;;35.30;6.60;;;11.20;99.90;;;;;;5047336;28;21378;-61
2023/01/05 04:36:21;;;;;;;35.95;6.55;;;11.10;99.90;;;;;;5045680;28;20032;-60
2023/01/05 04:38:47;;;;;;;32.67;5.85;;;11.10;99.90;;;;;;5047549;28;20472;-61
2023/01/05 04:41:12;;;;;;;30.17;6.50;;;11.10;99.90;;;;;;5042482;28;20655;-61
2023/01/05 04:43:38;;;;;;;34.72;6.50;;;11.10;99.90;;;;;;5045988;28;20037;-61
2023/01/05 04:46:04;;;;;;;31.23;6.63;;;11.10;99.90;;;;;;5047896;28;20041;-60
2023/01/05 04:48:30;;;;;;;32.55;6.18;;;11.00;99.90;;;;;;5044250;28;20103;-61
2023/01/05 04:50:56;;;;;;;34.28;6.55;;;10.90;99.90;;;;;;5046457;28;20060;-60
2023/01/05 04:53:23;;;;;;;37.60;5.93;;;11.00;99.90;;;;;;5046840;28;20041;-61
2023/01/05 04:55:49;;;;;;;32.60;6.30;;;11.10;99.90;;;;;;5046195;28;20104;-61
2023/01/05 04:58:15;;;;;;;28.58;5.65;;;11.20;99.90;;;;;;5046076;28;20036;-60
2023/01/05 05:00:41;;;;;;;29.00;5.93;;;11.10;99.90;;;;;;5046369;28;20044;-60
2023/01/05 05:03:06;;;;;;;40.05;6.72;;;11.10;99.90;;;;;;5046647;28;20488;-60
2023/01/05 05:05:32;;;;;;;34.10;5.82;;;11.20;99.90;;;;;;5046647;28;20061;-61
2023/01/05 05:07:57;;;;;;;30.60;5.53;;;11.10;99.90;;;;;;5046866;28;20029;-60
2023/01/05 05:10:23;;;;;;;29.27;6.38;;;11.10;99.90;;;;;;5043720;28;20090;-61
2023/01/05 05:12:49;;;;;;;33.63;5.80;;;11.10;99.90;;;;;;5046050;28;20040;-60
2023/01/05 05:15:14;;;;;;;32.97;5.75;;;11.10;99.90;;;;;;5046296;28;20044;-61
2023/01/05 05:17:40;;;;;;;33.58;6.18;;;11.20;99.90;;;;;;5046217;28;20087;-60
2023/01/05 05:20:06;;;;;;;31.63;5.78;;;11.10;99.90;;;;;;5027305;28;20033;-59
2023/01/05 05:22:31;;;;;;;28.17;5.70;;;11.20;99.90;;;;;;5046828;28;20028;-60
2023/01/05 05:24:57;;;;;;;35.50;6.82;;;11.10;99.90;;;;;;5042125;28;20050;-61
2023/01/05 05:27:22;;;;;;;31.38;5.95;;;11.10;99.90;;;;;;5045637;28;20041;-60
2023/01/05 05:29:48;;;;;;;32.15;6.20;;;11.20;99.90;;;;;;5043174;28;20065;-61
2023/01/05 05:32:14;;;;;;;34.40;6.03;;;11.10;99.90;;;;;;5045585;28;20060;-60
2023/01/05 05:34:39;;;;;;;28.05;5.63;;;11.10;99.90;;;;;;5043223;28;20055;-61
2023/01/05 05:37:05;;;;;;;26.83;5.20;;;11.10;99.90;;;;;;5040616;28;20642;-60
2023/01/05 05:39:31;;;;;;;37.95;6.60;;;11.00;99.90;;;;;;5045316;28;20056;-60
2023/01/05 05:41:56;;;;;;;34.00;6.22;;;11.00;99.90;;;;;;5043301;28;20071;-60
2023/01/05 05:44:22;;;;;;;31.58;6.53;;;11.10;99.90;;;;;;5046011;28;20052;-60
2023/01/05 05:46:47;;;;;;;43.10;7.25;;;11.10;99.90;;;;;;5046048;28;20052;-61
2023/01/05 05:49:13;;;;;;;32.05;6.10;;;11.00;99.90;;;;;;5045993;28;20032;-61
2023/01/05 05:51:39;;;;;;;33.83;7.03;;;10.90;99.90;;;;;;5043850;28;20074;-60
2023/01/05 05:54:04;;;;;;;32.15;6.00;;;10.90;99.90;;;;;;5043610;28;20112;-60
2023/01/05 05:56:30;;;;;;;38.08;6.47;;;11.00;99.90;;;;;;5044867;28;20136;-61
2023/01/05 05:58:56;;;;;;;30.60;5.85;;;10.90;99.90;;;;;;5027838;28;20043;-61
2023/01/05 06:01:21;;;;;;;35.05;6.78;;;11.00;99.90;;;;;;5045058;28;20037;-61
2023/01/05 06:03:47;;;;;;;33.25;6.47;;;11.00;99.90;;;;;;5039642;28;20083;-61
2023/01/05 06:06:12;;;;;;;35.83;6.35;;;10.90;99.90;;;;;;5045829;28;20037;-61
2023/01/05 06:08:38;;;;;;;39.85;7.30;;;11.00;99.90;;;;;;5045955;28;20037;-61
2023/01/05 06:11:04;;;;;;;36.40;7.50;;;11.00;99.90;;;;;;5043358;28;20120;-61
2023/01/05 06:13:29;;;;;;;37.08;7.30;;;11.00;99.90;;;;;;5045413;28;20033;-61
2023/01/05 06:15:55;;;;;;;35.40;7.28;;;10.90;99.90;;;;;;5044765;28;20041;-61
2023/01/05 06:18:20;;;;;;;37.03;6.97;;;10.80;99.90;;;;;;5045593;28;20120;-61
2023/01/05 06:20:46;;;;;;;38.60;6.93;;;11.00;99.90;;;;;;5041749;28;20025;-61
2023/01/05 06:23:11;;;;;;;38.08;7.10;;;11.10;99.90;;;;;;5044277;28;20037;-61
2023/01/05 06:25:37;;;;;;;36.55;7.55;;;11.10;99.90;;;;;;5043980;28;20132;-61
2023/01/05 06:28:02;;;;;;;41.40;7.03;;;11.00;99.90;;;;;;5044714;28;20561;-61
2023/01/05 06:30:28;;;;;;;43.38;7.57;;;11.00;99.90;;;;;;5045322;28;20540;-61
2023/01/05 06:32:54;;;;;;;35.95;6.70;;;11.00;99.90;;;;;;5045060;28;20503;-61
2023/01/05 06:35:20;;;;;;;39.72;7.65;;;11.00;99.90;;;;;;5044665;28;20384;-61
2023/01/05 06:37:46;;;;;;;37.53;6.82;;;11.00;99.90;;;;;;5043765;28;20410;-61
2023/01/05 06:40:12;;;;;;;39.55;8.70;;;10.90;99.90;;;;;;5043233;28;20033;-61
2023/01/05 06:42:38;;;;;;;34.42;7.38;;;10.90;99.90;;;;;;5044380;28;20033;-61
2023/01/05 06:45:05;;;;;;;41.65;8.55;;;10.90;99.90;;;;;;5044625;28;20443;-61
2023/01/05 06:47:31;;;;;;;40.55;8.40;;;11.00;99.90;;;;;;5044977;28;20486;-61
2023/01/05 06:49:57;;;;;;;36.25;7.93;;;10.90;99.90;;;;;;5019530;28;20061;-61
2023/01/05 06:52:23;;;;;;;33.38;7.72;;;10.90;99.90;;;;;;5003656;28;20515;-61
2023/01/05 06:54:48;;;;;;;39.97;7.88;;;10.90;99.90;;;;;;5025217;28;20037;-61
2023/01/05 06:57:14;;;;;;;46.15;8.07;;;10.80;99.90;;;;;;5022522;28;20038;-60
2023/01/05 06:59:40;;;;;;;39.17;7.55;;;10.70;99.90;;;;;;5022365;28;20038;-61
2023/01/05 07:02:13;;;;;;;43.05;8.15;;;10.80;99.90;;;;;;5024761;28;20080;-60
2023/01/05 07:04:38;;;;;;;40.83;8.38;;;10.80;99.90;;;;;;5022870;28;20044;-61
2023/01/05 07:07:04;;;;;;;32.85;7.32;;;10.80;99.90;;;;;;5022147;28;20033;-61
2023/01/05 07:09:29;;;;;;;43.33;7.32;;;10.80;99.90;;;;;;5001804;28;20551;-63
2023/01/05 07:11:55;;;;;;;41.40;7.88;;;10.80;99.90;;;;;;5012521;28;20491;-63
2023/01/05 07:14:20;;;;;;;45.90;8.85;;;10.70;99.90;;;;;;5034430;28;21383;-63
2023/01/05 07:16:46;;;;;;;34.88;10.80;;;10.80;99.90;;;;;;5045038;28;20029;-63
2023/01/05 07:19:11;;;;;;;41.63;7.97;;;10.80;99.90;;;;;;5026663;28;20033;-63
2023/01/05 07:21:37;;;;;;;45.75;8.30;;;10.90;99.90;;;;;;5021583;28;20033;-63
2023/01/05 07:24:03;;;;;;;37.22;7.97;;;10.80;99.90;;;;;;5023291;28;20033;-63
2023/01/05 07:26:28;;;;;;;37.72;8.10;;;10.90;99.90;;;;;;5021034;28;20124;-63
2023/01/05 07:28:54;;;;;;;36.80;7.82;;;10.70;99.90;;;;;;5025292;28;20040;-63
2023/01/05 07:31:19;;;;;;;41.08;8.65;;;10.80;99.90;;;;;;5024330;28;20397;-63
2023/01/05 07:33:45;;;;;;;43.97;8.85;;;11.00;99.90;;;;;;5023814;28;20040;-64
2023/01/05 07:36:11;;;;;;;40.95;9.52;;;11.00;99.90;;;;;;5009042;28;20036;-65
2023/01/05 07:38:36;;;;;;;39.83;8.15;;;11.00;99.90;;;;;;5025722;28;20041;-64
2023/01/05 07:41:02;;;;;;;44.67;8.43;;;11.00;99.90;;;;;;5019710;28;20112;-64
2023/01/05 07:43:28;;;;;;;39.35;8.70;;;11.10;99.90;;;;;;5018281;28;20175;-64
2023/01/05 07:46:02;;;;;;;42.65;8.30;;;11.00;99.90;;;;;;5026522;28;20047;-64
2023/01/05 07:48:28;;;;;;;41.20;8.93;;;11.00;99.90;;;;;;5044097;28;20110;-64
2023/01/05 07:51:04;;;;;;;41.40;8.73;;;10.90;99.90;;;;;;5042448;28;20484;-64
2023/01/05 07:53:30;;;;;;;39.53;8.48;;;10.90;99.90;;;;;;5038745;28;20041;-64
2023/01/05 07:56:00;;;;;;;53.17;9.18;;;10.90;99.90;;;;;;5042152;28;20041;-64
2023/01/05 07:58:27;;;;;;;38.63;8.20;;;10.80;99.90;;;;;;5025560;28;20067;-64
2023/01/05 08:00:53;;;;;;;38.25;8.95;;;10.90;99.90;;;;;;5042656;28;20044;-64
2023/01/05 08:03:19;;;;;;;53.63;9.50;;;10.90;99.90;;;;;;5042568;28;20033;-64
2023/01/05 08:05:45;;;;;;;39.58;9.40;;;11.00;99.90;;;;;;5043360;28;20071;-63
2023/01/05 08:08:11;;;;;;;42.78;8.77;;;11.00;99.90;;;;;;5042633;28;20535;-63
2023/01/05 08:10:38;;;;;;;44.58;8.98;;;11.10;99.90;;;;;;5023793;28;20523;-63
2023/01/05 08:15:52;;;;;;;44.97;8.65;;;11.00;99.90;;;;;;5040777;28;20051;-63
2023/01/05 08:18:18;;;;;;;50.38;9.35;;;10.90;99.90;;;;;;5043235;28;20037;-63
2023/01/05 08:20:50;;;;;;;46.83;8.90;;;10.90;99.90;;;;;;5042641;28;20037;-63
2023/01/05 08:23:15;;;;;;;42.65;8.07;;;10.90;99.90;;;;;;5043332;28;20645;-63
2023/01/05 08:25:41;;;;;;;38.17;8.57;;;10.90;99.90;;;;;;5042405;28;20033;-63
2023/01/05 08:28:06;;;;;;;36.05;8.25;;;10.90;99.90;;;;;;5041590;28;20037;-63
2023/01/05 08:30:32;;;;;;;42.60;8.63;;;10.90;99.90;;;;;;5043333;28;20052;-64
2023/01/05 08:32:58;;;;;;;45.58;8.82;;;11.00;99.90;;;;;;5025154;28;20052;-63
2023/01/05 08:35:24;;;;;;;46.20;9.77;;;11.10;99.90;;;;;;5042559;28;20323;-64
2023/01/05 08:37:49;;;;;;;35.15;8.27;;;11.10;99.90;;;;;;5041911;28;20041;-64
2023/01/05 08:40:15;;;;;;;44.15;8.77;;;11.10;99.90;;;;;;5042133;28;20025;-63
2023/01/05 08:42:41;;;;;;;46.28;8.50;;;11.20;99.90;;;;;;5042347;28;20039;-63
2023/01/05 08:45:07;;;;;;;43.25;8.80;;;11.20;99.90;;;;;;5040943;28;20048;-63
2023/01/05 08:47:32;;;;;;;43.22;8.65;;;11.10;99.90;;;;;;5047116;28;20133;-64
2023/01/05 08:49:58;;;;;;;49.97;8.93;;;11.10;99.90;;;;;;5045077;28;20033;-63
2023/01/05 08:52:23;;;;;;;35.05;8.35;;;11.10;99.90;;;;;;5049606;28;20024;-64
2023/01/05 08:54:49;;;;;;;49.65;10.35;;;11.20;99.90;;;;;;5045599;28;20029;-64
2023/01/05 08:57:14;;;;;;;40.97;10.70;;;11.10;99.90;;;;;;5045076;28;20396;-63
2023/01/05 08:59:40;;;;;;;50.53;10.35;;;11.10;99.90;;;;;;5046125;28;20076;-63
2023/01/05 09:02:10;;;;;;;42.65;10.05;;;11.10;99.90;;;;;;5045846;28;20041;-63
2023/01/05 09:04:36;;;;;;;46.45;9.40;;;11.10;99.90;;;;;;5046037;28;20254;-64
2023/01/05 09:07:02;;;;;;;48.13;11.13;;;11.10;99.90;;;;;;5045440;28;20047;-64
2023/01/05 09:09:28;;;;;;;46.25;12.35;;;11.10;99.90;;;;;;5046070;28;20506;-63
2023/01/05 09:11:53;;;;;;;46.63;11.93;;;11.10;99.90;;;;;;5025836;28;20033;-64
2023/01/05 09:14:19;;;;;;;44.90;9.57;;;11.20;99.90;;;;;;5009379;28;20108;-64
2023/01/05 09:16:44;;;;;;;43.97;9.70;;;11.20;99.90;;;;;;5022292;28;20036;-64
2023/01/05 09:19:10;;;;;;;51.03;9.20;;;11.30;99.90;;;;;;5003052;28;20069;-63
2023/01/05 09:21:38;;;;;;;47.88;9.63;;;11.20;99.90;;;;;;5021973;28;20045;-64
2023/01/05 09:24:06;;;;;;;43.60;9.80;;;11.30;99.90;;;;;;5025650;28;20034;-63
2023/01/05 09:26:32;;;;;;;49.22;10.10;;;11.40;99.90;;;;;;5045464;28;20037;-63
2023/01/05 09:28:57;;;;;;;44.53;9.55;;;11.50;99.90;;;;;;5029094;28;20504;-64
2023/01/05 09:31:23;;;;;;;41.15;8.82;;;11.30;99.90;;;;;;5044719;28;20029;-63
2023/01/05 09:33:49;;;;;;;39.60;8.88;;;11.40;99.90;;;;;;5044526;28;20044;-64
2023/01/05 09:36:16;;;;;;;35.97;8.95;;;11.40;99.90;;;;;;5041016;28;20104;-64
2023/01/05 09:38:42;;;;;;;45.42;9.27;;;11.40;99.90;;;;;;5045282;28;20040;-64
2023/01/05 09:41:14;;;;;;;41.90;8.80;;;11.40;99.90;;;;;;5042546;28;20409;-63
2023/01/05 09:43:42;;;;;;;36.00;9.07;;;11.30;99.90;;;;;;5041378;28;20037;-64
2023/01/05 09:46:19;;;;;;;42.25;8.95;;;11.30;99.90;;;;;;5043226;28;20500;-63
2023/01/05 09:48:51;;;;;;;41.10;9.23;;;11.50;99.90;;;;;;5045922;28;20649;-63
2023/01/05 09:51:16;;;;;;;42.13;9.70;;;11.40;99.90;;;;;;5042220;28;20305;-63
2023/01/05 09:53:42;;;;;;;38.53;8.18;;;11.30;99.90;;;;;;5025977;28;20663;-64
2023/01/05 09:56:27;;;;;;;40.03;9.32;;;11.30;99.90;;;;;;5024080;28;20033;-63
2023/01/05 09:59:05;;;;;;;38.95;8.40;;;11.40;99.90;;;;;;5045085;28;20132;-64
2023/01/05 10:01:35;;;;;;;48.67;8.98;;;11.30;99.90;;;;;;5029520;28;20051;-63
2023/01/05 10:04:15;;;;;;;50.17;8.88;;;11.30;99.90;;;;;;5044961;28;20099;-64
2023/01/05 10:06:45;;;;;;;44.38;8.20;;;11.40;99.90;;;;;;5044322;28;20041;-64
2023/01/05 10:09:23;;;;;;;39.42;8.20;;;11.40;99.90;;;;;;5044381;28;20057;-64
2023/01/05 10:15:15;;;;;;;41.53;8.85;;;11.40;99.90;;;;;;5044654;28;20044;-64
2023/01/05 10:17:41;;;;;;;36.55;8.35;;;11.50;99.90;;;;;;5024567;28;20657;-64
2023/01/05 10:20:15;;;;;;;36.45;8.48;;;11.40;99.90;;;;;;5040528;28;20123;-64
2023/01/05 10:22:52;;;;;;;53.38;14.40;;;11.20;99.90;;;;;;5044280;28;20070;-64
2023/01/05 10:25:25;;;;;;;38.65;10.05;;;11.30;99.90;;;;;;5043950;28;20039;-64
2023/01/05 10:27:59;;;;;;;41.10;9.40;;;11.30;99.90;;;;;;5042229;28;20033;-63
2023/01/05 10:30:37;;;;;;;36.08;7.65;;;11.20;99.90;;;;;;5041248;28;20029;-64
2023/01/05 10:33:14;;;;;;;41.58;8.45;;;11.50;99.90;;;;;;5043281;28;20432;-64
2023/01/05 10:36:13;;;;;;;41.85;7.78;;;11.50;99.90;;;;;;5043106;28;20033;-64
2023/01/05 10:39:11;;;;;;;38.55;7.40;;;11.40;99.90;;;;;;5033616;28;20551;-64
2023/01/05 10:41:41;;;;;;;37.83;6.65;;;11.50;99.90;;;;;;5035993;28;20056;-64
2023/01/05 10:44:26;;;;;;;40.60;6.82;;;11.70;99.90;;;;;;5043552;28;20076;-64
2023/01/05 10:46:51;;;;;;;42.13;8.88;;;11.70;99.90;;;;;;5043998;28;20048;-64
2023/01/05 10:49:31;;;;;;;33.13;7.30;;;11.70;99.90;;;;;;5042464;28;20587;-62
2023/01/05 10:51:59;;;;;;;36.45;7.18;;;11.70;99.90;;;;;;5041903;28;20033;-64
2023/01/05 10:54:41;;;;;;;46.50;7.70;;;11.70;99.90;;;;;;5043380;28;20112;-65
2023/01/05 10:57:29;;;;;;;33.87;7.60;;;11.80;99.90;;;;;;5038839;28;20045;-64
2023/01/05 10:59:58;;;;;;;40.33;8.00;;;11.80;99.90;;;;;;5044482;28;20040;-64
2023/01/05 11:02:27;;;;;;;30.55;7.30;;;11.80;99.90;;;;;;5042446;28;20033;-64
2023/01/05 11:04:58;;;;;;;39.90;8.35;;;11.70;99.90;;;;;;5041855;28;20056;-64
2023/01/05 11:07:24;;;;;;;38.45;7.47;;;11.60;99.90;;;;;;5040780;28;20029;-64
2023/01/05 11:09:50;;;;;;;33.90;6.63;;;11.70;99.90;;;;;;5043055;28;20562;-64
2023/01/05 11:12:21;;;;;;;41.03;7.45;;;11.70;99.90;;;;;;5041150;28;20033;-64
2023/01/05 11:14:53;;;;;;;31.27;6.32;;;11.70;99.90;;;;;;5044370;28;20148;-64
2023/01/05 11:17:22;;;;;;;38.10;6.90;;;11.70;99.90;;;;;;5024230;28;20438;-64
2023/01/05 11:19:54;;;;;;;41.88;6.82;;;11.70;99.90;;;;;;5041874;28;20530;-64
2023/01/05 11:22:33;;;;;;;36.75;7.18;;;11.90;99.90;;;;;;5043836;28;20029;-65
2023/01/05 11:25:13;;;;;;;37.63;8.18;;;11.80;99.90;;;;;;5041318;28;20135;-64
2023/01/05 11:27:39;;;;;;;34.58;7.68;;;11.80;99.90;;;;;;5020041;28;20040;-64
2023/01/05 11:30:14;;;;;;;34.33;7.80;;;11.90;99.90;;;;;;5023075;28;20037;-65
2023/01/05 11:32:40;;;;;;;38.72;7.63;;;11.80;99.90;;;;;;5036462;28;20559;-65
2023/01/05 11:35:35;;;;;;;33.50;7.07;;;11.90;99.90;;;;;;5042264;28;20025;-64
2023/01/05 11:38:01;;;;;;;38.17;8.43;;;11.80;99.90;;;;;;5043046;28;20121;-64
2023/01/05 11:40:35;;;;;;;36.38;7.22;;;12.00;99.90;;;;;;5024332;28;20112;-64
2023/01/05 11:43:09;;;;;;;33.50;7.07;;;11.80;99.90;;;;;;5042516;28;20057;-64
2023/01/05 11:45:48;;;;;;;36.92;7.03;;;11.90;99.90;;;;;;5040036;28;20052;-64
2023/01/05 11:48:23;;;;;;;41.22;7.80;;;11.90;99.90;;;;;;5023435;28;20654;-65
2023/01/05 11:50:51;;;;;;;30.27;6.80;;;12.00;99.90;;;;;;5042680;28;20569;-65
2023/01/05 11:53:25;;;;;;;28.88;6.47;;;12.00;99.90;;;;;;5043425;28;20124;-64
2023/01/05 11:56:00;;;;;;;34.92;7.15;;;12.00;99.90;;;;;;5040575;28;20033;-64
2023/01/05 11:58:30;;;;;;;51.45;13.73;;;12.20;99.90;;;;;;5042669;28;20492;-64
2023/01/05 12:01:21;;;;;;;50.97;16.60;;;12.10;99.90;;;;;;5043579;28;20037;-64
2023/01/05 12:04:12;;;;;;;41.83;11.98;;;12.10;99.90;;;;;;5051132;28;20115;-64
2023/01/05 12:07:07;;;;;;;35.13;7.47;;;12.20;99.90;;;;;;5050775;28;20030;-64
2023/01/05 12:09:35;;;;;;;41.20;8.68;;;12.20;99.90;;;;;;5049713;28;20037;-64
2023/01/05 12:12:09;;;;;;;37.90;8.10;;;12.10;99.90;;;;;;5031264;28;20041;-64
2023/01/05 12:14:57;;;;;;;38.03;7.43;;;11.90;99.90;;;;;;5035447;28;20068;-64
2023/01/05 12:17:52;;;;;;;38.30;8.68;;;12.00;99.90;;;;;;5040611;28;20048;-64
2023/01/05 12:20:36;;;;;;;44.47;9.07;;;12.00;99.90;;;;;;5013637;28;20439;-65
2023/01/05 12:23:23;;;;;;;39.00;8.45;;;12.00;99.90;;;;;;5045554;28;20043;-64
2023/01/05 12:26:26;;;;;;;38.47;10.13;;;12.00;99.90;;;;;;5044141;28;20040;-64
2023/01/05 12:29:01;;;;;;;46.30;11.68;;;12.00;99.90;;;;;;4984352;28;20149;-64
2023/01/05 12:31:43;;;;;;;34.88;9.35;;;12.00;99.90;;;;;;5032739;28;20037;-64
2023/01/05 12:34:29;;;;;;;38.53;9.88;;;12.10;99.90;;;;;;5045434;28;20706;-64
2023/01/05 12:37:41;;;;;;;32.40;8.75;;;12.10;99.90;;;;;;5045559;28;20037;-64
2023/01/05 12:40:39;;;;;;;39.13;8.52;;;12.10;99.90;;;;;;5015399;28;20131;-64
2023/01/05 12:43:40;;;;;;;36.88;8.75;;;12.20;99.90;;;;;;5029922;28;20033;-64
2023/01/05 12:46:31;;;;;;;39.40;9.18;;;12.30;99.90;;;;;;5024671;28;20204;-64
2023/01/05 12:49:00;;;;;;;32.58;8.77;;;12.10;99.90;;;;;;5045732;28;20029;-64
2023/01/05 12:51:49;;;;;;;36.20;8.02;;;12.10;99.90;;;;;;5044470;28;20037;-64
2023/01/05 12:54:38;;;;;;;33.72;8.57;;;12.10;99.90;;;;;;5042512;28;20112;-64
2023/01/05 12:57:11;;;;;;;33.38;8.35;;;12.10;99.90;;;;;;5027242;28;20017;-64
2023/01/05 13:00:10;;;;;;;40.83;9.25;;;12.10;99.90;;;;;;5046242;28;20029;-64
2023/01/05 13:02:43;;;;;;;39.28;10.82;;;12.10;99.90;;;;;;5022452;28;20115;-64
2023/01/05 13:05:38;;;;;;;32.00;8.47;;;12.10;99.90;;;;;;5045067;28;20045;-64
2023/01/05 13:08:25;;;;;;;37.00;9.38;;;12.10;99.90;;;;;;5036965;28;20150;-64
2023/01/05 13:10:56;;;;;;;39.22;10.13;;;12.10;99.90;;;;;;5043851;28;20033;-64
2023/01/05 13:13:28;;;;;;;30.77;8.77;;;12.10;99.90;;;;;;5027064;28;20068;-64
2023/01/05 13:16:14;;;;;;;37.00;10.00;;;12.20;99.90;;;;;;5045971;28;20545;-64
2023/01/05 13:18:45;;;;;;;30.30;9.52;;;12.10;99.90;;;;;;5045307;28;20554;-64
2023/01/05 13:21:12;;;;;;;36.05;8.90;;;12.10;99.90;;;;;;5027012;28;20124;-64
2023/01/05 13:23:46;;;;;;;41.30;10.30;;;12.20;99.90;;;;;;5042286;28;20880;-64
2023/01/05 13:26:17;;;;;;;38.88;9.55;;;12.30;99.90;;;;;;5044197;28;20087;-64
2023/01/05 13:28:46;;;;;;;30.73;8.52;;;12.40;99.90;;;;;;5046013;28;20029;-64